Kingsbury, Indiana
Current Conditions -  °F | °C
As of 12:55 AM on Sunday 26 Oct 2014 (Local Time) from KPPO Reporting Station
Clear Clear  
Wind Chill: 56°   Ceiling: Unl
Heat Index: 56°   Visibility: 10mi
Dew Point: 33°   Wind: 8mph
Humidity: 43%   Direction: 320°NW
Pressure: 29.96"   Gusts: NA
Location:  41.53°N, 86.7°W
Report Text: KPPO 260555Z AUTO 32007KT 10SM CLR 13/01 A2996 RMK AO2 T01310008 10171 20130
Loading
Personal Weather Stations






























Interactive Weather Map
Tropical Storm Tracking
New forecast layout! Learn more

10-Day Weather Forecast

Advertisements
Track Severe Weather on mobile